Time;durP1;ratioP1;P1;durP2;ratioP2;P2;SDS_P1;SDS_P2;PMS_P1;PMS_P2;Temp;Humidity;BMP_temperature;BMP_pressure;BME280_temperature;BME280_humidity;BME280_pressure;Samples;Min_cycle;Max_cycle;Signal;HPM_P1;HPM_P2
2023/07/26 08:47:35;;;;;;;9.70;6.38;;;;;;;15.84;100.00;101072.66;5069470;28;20881;-68
2023/07/26 08:50:04;;;;;;;10.98;8.02;;;;;;;15.95;100.00;101073.59;5053464;28;20366;-70
2023/07/26 08:52:30;;;;;;;15.25;7.78;;;;;;;16.05;100.00;101062.78;5048974;28;20022;-67
2023/07/26 08:54:56;;;;;;;10.15;7.13;;;;;;;16.18;100.00;101068.94;5050059;28;20021;-68
2023/07/26 08:57:24;;;;;;;11.40;7.47;;;;;;;16.25;100.00;101066.81;5049540;28;20032;-68
2023/07/26 08:59:49;;;;;;;10.52;7.22;;;;;;;16.42;100.00;101051.13;5058256;28;20033;-69
2023/07/26 09:02:16;;;;;;;14.93;7.10;;;;;;;16.60;100.00;101055.38;5067468;28;20495;-69
2023/07/26 09:04:41;;;;;;;9.68;6.80;;;;;;;16.66;100.00;101046.16;5069690;28;20028;-69
2023/07/26 09:07:07;;;;;;;8.80;6.10;;;;;;;16.75;100.00;101051.94;5079579;28;20032;-69
2023/07/26 09:09:34;;;;;;;10.77;5.45;;;;;;;16.78;100.00;101045.97;5089804;28;20460;-68
2023/07/26 09:12:00;;;;;;;9.10;5.53;;;;;;;16.99;100.00;101054.34;5089276;28;20111;-69
2023/07/26 09:14:27;;;;;;;8.90;5.35;;;;;;;17.07;100.00;101047.56;5089460;28;20056;-69
2023/07/26 09:16:57;;;;;;;8.38;5.45;;;;;;;17.04;100.00;101043.44;5086363;28;20364;-69
2023/07/26 09:19:34;;;;;;;6.88;5.38;;;;;;;17.08;100.00;101050.03;5078086;28;20103;-69
2023/07/26 09:22:02;;;;;;;9.48;5.97;;;;;;;17.07;100.00;101055.75;5069261;28;20031;-69
2023/07/26 09:24:35;;;;;;;8.93;4.97;;;;;;;17.03;100.00;101050.00;5072763;28;20028;-69
2023/07/26 09:27:04;;;;;;;8.75;5.50;;;;;;;17.04;100.00;101059.84;5089175;28;20020;-69
2023/07/26 09:29:30;;;;;;;7.18;5.38;;;;;;;17.14;100.00;101051.72;5084565;28;20031;-69
2023/07/26 09:31:56;;;;;;;9.68;5.50;;;;;;;17.28;100.00;101057.53;5089201;28;20028;-70
2023/07/26 09:34:22;;;;;;;9.93;5.30;;;;;;;17.29;100.00;101061.09;5089336;28;20103;-70
2023/07/26 09:36:49;;;;;;;6.88;5.07;;;;;;;17.24;98.87;101056.44;5089203;28;20058;-67
2023/07/26 09:39:16;;;;;;;6.63;4.88;;;;;;;17.28;100.00;101062.19;5070955;28;20024;-68
2023/07/26 09:41:42;;;;;;;5.72;3.58;;;;;;;17.21;84.06;101064.31;5058778;28;20032;-71
2023/07/26 09:44:17;;;;;;;4.63;3.40;;;;;;;17.08;80.28;101073.81;5050431;28;20641;-69
2023/07/26 09:46:48;;;;;;;3.97;2.40;;;;;;;17.01;65.91;101068.56;5051250;28;20037;-72
2023/07/26 09:49:13;;;;;;;3.15;2.30;;;;;;;17.00;67.32;101064.22;5048343;28;20036;-68
2023/07/26 09:51:40;;;;;;;3.28;2.33;;;;;;;17.17;68.07;101066.78;5068276;28;20024;-66
2023/07/26 09:54:07;;;;;;;1.98;1.83;;;;;;;17.32;60.10;101060.56;5067980;28;20054;-67
2023/07/26 09:56:33;;;;;;;3.10;2.10;;;;;;;17.31;58.52;101065.19;5062042;28;20029;-66
2023/07/26 09:59:00;;;;;;;3.30;2.20;;;;;;;17.29;63.13;101063.84;5041283;28;20079;-66
2023/07/26 10:01:29;;;;;;;3.22;2.35;;;;;;;17.33;67.82;101064.94;5031952;28;20033;-68
2023/07/26 10:03:58;;;;;;;5.25;2.78;;;;;;;17.30;66.35;101060.00;5034708;28;20461;-68
2023/07/26 10:06:24;;;;;;;4.40;3.22;;;;;;;17.18;69.45;101058.31;5034849;28;20464;-68
2023/07/26 10:08:50;;;;;;;4.15;3.20;;;;;;;17.05;72.59;101058.75;5034970;28;20021;-69
2023/07/26 10:11:18;;;;;;;5.43;3.30;;;;;;;16.99;74.04;101049.69;5037295;28;20345;-68
2023/07/26 10:13:45;;;;;;;4.57;3.28;;;;;;;17.02;79.66;101058.47;5040503;28;20032;-66
2023/07/26 10:16:11;;;;;;;5.25;3.40;;;;;;;17.03;78.71;101047.28;5035940;28;20119;-69
2023/07/26 10:18:36;;;;;;;6.53;3.80;;;;;;;16.95;78.72;101050.50;5039441;28;20135;-66
2023/07/26 10:21:04;;;;;;;5.70;3.90;;;;;;;16.95;85.50;101055.97;5044162;28;20442;-70
2023/07/26 10:23:30;;;;;;;7.75;4.57;;;;;;;17.13;95.82;101050.06;5050289;28;20025;-72
2023/07/26 10:25:59;;;;;;;7.22;4.90;;;;;;;17.31;94.00;101046.06;5052257;28;20028;-66
2023/07/26 10:28:25;;;;;;;8.18;4.70;;;;;;;17.61;100.00;101047.28;5049074;28;20024;-67
2023/07/26 10:30:52;;;;;;;8.05;4.78;;;;;;;17.80;93.09;101047.66;5053520;28;20359;-66
2023/07/26 10:33:18;;;;;;;6.35;4.15;;;;;;;17.95;87.65;101041.44;5054558;28;20020;-67
2023/07/26 10:35:43;;;;;;;8.00;4.78;;;;;;;18.02;87.96;101049.38;5054686;28;20075;-67
2023/07/26 10:38:09;;;;;;;6.00;4.18;;;;;;;18.00;90.30;101038.69;5048232;28;20079;-69
2023/07/26 10:40:36;;;;;;;6.03;4.28;;;;;;;18.05;94.04;101038.69;5034387;28;20057;-70
2023/07/26 10:43:22;;;;;;;6.15;4.22;;;;;;;18.06;91.43;101039.53;5044319;28;20104;-66
2023/07/26 10:45:56;;;;;;;6.82;4.32;;;;;;;17.78;80.81;101044.34;5050254;28;20136;-69
2023/07/26 10:48:38;;;;;;;5.10;4.00;;;;;;;17.72;90.21;101034.47;5051112;28;20024;-66
2023/07/26 10:51:22;;;;;;;6.03;4.25;;;;;;;17.85;95.41;101044.91;5038775;28;20523;-66
2023/07/26 10:53:48;;;;;;;6.47;4.35;;;;;;;17.96;92.93;101039.50;5034337;28;20033;-67
2023/07/26 10:56:33;;;;;;;8.45;4.80;;;;;;;18.04;87.89;101037.06;5044005;28;20025;-68
2023/07/26 10:59:04;;;;;;;5.65;4.47;;;;;;;18.31;79.50;101046.13;5041884;28;20073;-66
2023/07/26 11:01:41;;;;;;;8.70;4.80;;;;;;;18.51;81.52;101032.47;5032347;28;20029;-68
2023/07/26 11:04:12;;;;;;;6.80;4.35;;;;;;;18.62;70.61;101038.75;5033005;28;20025;-68
2023/07/26 11:06:58;;;;;;;8.15;4.05;;;;;;;18.66;71.07;101037.13;5033731;28;20026;-67
2023/07/26 11:09:28;;;;;;;7.22;4.03;;;;;;;18.80;69.20;101037.38;5048056;28;20029;-67
2023/07/26 11:11:59;;;;;;;5.63;3.92;;;;;;;19.01;70.47;101037.38;5035432;28;20483;-68
2023/07/26 11:14:30;;;;;;;5.18;4.28;;;;;;;19.16;71.70;101034.59;5041514;28;20025;-67
2023/07/26 11:16:58;;;;;;;7.53;4.43;;;;;;;19.17;69.94;101032.69;5053522;28;20360;-67
2023/07/26 11:19:23;;;;;;;6.25;3.72;;;;;;;19.18;64.11;101035.13;5038137;28;20025;-67
2023/07/26 11:21:49;;;;;;;6.88;3.88;;;;;;;19.44;65.01;101040.53;5040337;28;20376;-67
2023/07/26 11:24:14;;;;;;;7.70;4.63;;;;;;;19.36;65.82;101035.66;5053197;28;20433;-67
2023/07/26 11:26:44;;;;;;;5.75;3.70;;;;;;;19.18;68.21;101043.38;5033039;28;20032;-67
2023/07/26 11:29:10;;;;;;;5.93;4.28;;;;;;;19.04;71.32;101032.16;5033177;28;20029;-67
2023/07/26 11:31:36;;;;;;;6.75;4.25;;;;;;;19.16;70.66;101039.25;5041387;28;20072;-73
2023/07/26 11:34:19;;;;;;;6.55;4.07;;;;;;;19.28;65.89;101037.88;5052754;28;20542;-67
2023/07/26 11:36:45;;;;;;;3.90;3.10;;;;;;;19.11;60.35;101034.59;5049885;28;20094;-69
2023/07/26 11:39:25;;;;;;;7.82;3.40;;;;;;;19.19;60.38;101049.66;5047038;28;20103;-67
2023/07/26 11:41:51;;;;;;;4.85;3.28;;;;;;;19.43;59.48;101041.63;5053302;28;20045;-68
2023/07/26 11:44:20;;;;;;;4.90;3.20;;;;;;;19.34;58.38;101051.56;5051944;28;20017;-69
2023/07/26 11:46:45;;;;;;;5.68;3.40;;;;;;;19.21;58.78;101048.31;5052832;28;20052;-69
2023/07/26 11:49:22;;;;;;;4.22;3.25;;;;;;;19.11;59.45;101056.53;5039479;28;20025;-67
2023/07/26 11:51:48;;;;;;;9.40;3.80;;;;;;;19.27;59.50;101063.66;5050899;28;20040;-69
2023/07/26 11:54:14;;;;;;;4.97;3.15;;;;;;;19.26;55.08;101055.69;5052996;28;20085;-69
2023/07/26 11:56:40;;;;;;;6.45;3.15;;;;;;;19.22;54.18;101055.44;5051742;28;20028;-66
2023/07/26 12:36:13;;;;;;;5.63;2.88;;;;;;;20.32;49.94;101077.47;5158564;23;20811;-79
2023/07/26 12:38:40;;;;;;;9.30;3.00;;;;;;;20.12;52.74;101066.59;4965709;28;20058;-76
2023/07/26 12:41:06;;;;;;;6.20;3.10;;;;;;;19.93;50.52;101074.66;4968306;28;20426;-82
2023/07/26 12:43:31;;;;;;;6.95;2.85;;;;;;;19.70;49.74;101081.63;4971993;28;20082;-81
2023/07/26 12:46:00;;;;;;;5.15;2.55;;;;;;;19.55;50.95;101086.09;4978743;28;20096;-78
2023/07/26 12:48:26;;;;;;;4.65;3.10;;;;;;;19.46;52.49;101077.59;4974248;28;20101;-77
2023/07/26 12:50:53;;;;;;;4.43;3.10;;;;;;;19.48;52.01;101075.38;4970265;28;20394;-76
2023/07/26 12:53:23;;;;;;;3.25;2.70;;;;;;;19.84;51.61;101074.47;4955179;28;20050;-77
2023/07/26 12:55:50;;;;;;;5.95;3.22;;;;;;;20.16;52.35;101079.50;4969469;28;20063;-77
2023/07/26 12:58:16;;;;;;;5.72;3.30;;;;;;;20.16;53.37;101074.00;4973809;28;20022;-77
2023/07/26 13:00:44;;;;;;;5.15;3.72;;;;;;;19.91;52.54;101085.13;4970318;28;20023;-75
2023/07/26 13:03:10;;;;;;;6.78;3.65;;;;;;;19.91;53.43;101088.69;4970403;28;20038;-76
2023/07/26 13:05:36;;;;;;;7.10;3.38;;;;;;;19.90;54.99;101086.22;4981961;28;20121;-76
2023/07/26 13:08:01;;;;;;;8.70;3.58;;;;;;;20.06;53.73;101078.72;4975525;28;20043;-77
2023/07/26 13:10:28;;;;;;;4.63;3.38;;;;;;;20.30;52.27;101065.94;4989818;28;20032;-78
2023/07/26 13:12:53;;;;;;;5.00;3.75;;;;;;;20.35;53.17;101070.56;4975503;28;20441;-77
2023/07/26 13:15:20;;;;;;;5.80;3.60;;;;;;;20.24;52.86;101083.56;4972956;28;20031;-77
2023/07/26 13:17:46;;;;;;;5.05;2.78;;;;;;;20.08;50.86;101077.34;4970889;28;20033;-75
2023/07/26 13:20:12;;;;;;;4.47;3.42;;;;;;;20.04;51.41;101070.78;4968158;28;20616;-77
2023/07/26 13:22:38;;;;;;;3.45;2.92;;;;;;;20.22;49.67;101080.28;4972942;28;20035;-76
2023/07/26 13:25:04;;;;;;;4.85;2.80;;;;;;;20.46;50.13;101083.16;4963143;28;20560;-77
2023/07/26 13:27:30;;;;;;;4.30;2.60;;;;;;;20.49;48.36;101082.56;4973653;28;20540;-76
2023/07/26 13:29:55;;;;;;;6.30;2.97;;;;;;;20.66;49.16;101076.69;4982331;28;20035;-76
2023/07/26 13:32:21;;;;;;;5.35;3.13;;;;;;;20.74;49.88;101078.00;4968647;28;20037;-76
2023/07/26 13:34:47;;;;;;;3.22;2.47;;;;;;;20.87;48.30;101079.28;4976064;28;20041;-77
2023/07/26 13:37:12;;;;;;;6.93;2.70;;;;;;;20.93;47.57;101083.63;4966092;28;20051;-76
2023/07/26 13:39:38;;;;;;;3.33;2.38;;;;;;;20.96;48.99;101090.47;4957413;28;20047;-77
2023/07/26 13:42:03;;;;;;;5.20;3.15;;;;;;;20.97;49.76;101092.94;4957759;29;20394;-74
2023/07/26 13:44:28;;;;;;;4.00;2.85;;;;;;;21.20;50.53;101080.31;4957849;28;20481;-75
2023/07/26 13:46:54;;;;;;;5.95;3.08;;;;;;;21.31;49.40;101085.72;4958265;28;20134;-81
2023/07/26 13:49:19;;;;;;;4.00;2.60;;;;;;;21.20;48.59;101088.59;4957347;28;20055;-76
2023/07/26 13:51:45;;;;;;;7.18;3.53;;;;;;;21.12;49.35;101094.72;4955975;28;20110;-76
2023/07/26 13:54:11;;;;;;;7.95;3.20;;;;;;;21.01;50.35;101098.69;4957124;28;20031;-78
2023/07/26 13:56:54;;;;;;;6.95;3.10;;;;;;;20.88;50.85;101098.25;4957572;29;20460;-83
2023/07/26 13:59:20;;;;;;;5.38;2.88;;;;;;;20.64;49.60;101100.88;4954586;28;20082;-76
2023/07/26 14:01:45;;;;;;;4.75;2.80;;;;;;;20.52;50.76;101097.69;4952871;28;20505;-75
2023/07/26 14:04:10;;;;;;;4.90;3.05;;;;;;;20.53;50.54;101093.81;4957418;29;20023;-76
2023/07/26 14:06:36;;;;;;;5.22;2.70;;;;;;;20.76;51.19;101091.47;4957146;29;20090;-75
2023/07/26 14:09:01;;;;;;;5.05;3.00;;;;;;;20.92;50.94;101097.66;4957223;28;20027;-76
2023/07/26 14:11:26;;;;;;;5.80;2.78;;;;;;;21.12;48.99;101089.22;4956814;29;20055;-75
2023/07/26 14:13:52;;;;;;;3.08;2.70;;;;;;;21.22;48.24;101093.78;4957814;29;20030;-77
2023/07/26 14:16:17;;;;;;;5.07;2.30;;;;;;;21.32;47.05;101092.88;4955429;28;20067;-77
2023/07/26 14:18:43;;;;;;;3.88;2.42;;;;;;;21.47;43.75;101097.38;4961598;28;20035;-75
2023/07/26 14:21:10;;;;;;;3.47;2.35;;;;;;;21.63;44.25;101101.63;4959240;28;20031;-78
2023/07/26 14:23:36;;;;;;;3.15;2.40;;;;;;;21.78;44.81;101089.59;4956283;29;20035;-76
2023/07/26 14:26:02;;;;;;;3.78;2.13;;;;;;;21.93;44.29;101092.16;4957278;28;20027;-77
2023/07/26 14:28:28;;;;;;;3.35;2.28;;;;;;;21.94;43.40;101090.25;4955332;28;20038;-72
2023/07/26 14:30:53;;;;;;;3.03;2.28;;;;;;;22.05;42.17;101083.47;4955765;29;20028;-74
2023/07/26 14:33:19;;;;;;;6.88;2.45;;;;;;;22.04;42.81;101081.84;4956317;28;20034;-80
2023/07/26 14:35:45;;;;;;;3.42;1.95;;;;;;;22.39;43.23;101087.13;4954942;28;20062;-76
2023/07/26 14:38:10;;;;;;;3.60;2.17;;;;;;;22.45;42.57;101088.69;4956470;28;20477;-74
2023/07/26 14:40:36;;;;;;;3.72;2.58;;;;;;;22.52;43.51;101091.09;4955862;28;20489;-75
2023/07/26 14:43:02;;;;;;;2.83;2.30;;;;;;;22.71;42.65;101086.34;4955709;28;20041;-75
2023/07/26 14:45:28;;;;;;;4.45;2.50;;;;;;;22.56;42.95;101086.63;4955560;28;20437;-78
2023/07/26 14:47:53;;;;;;;3.55;2.50;;;;;;;22.46;42.70;101093.09;4954850;29;20051;-73
2023/07/26 14:50:19;;;;;;;4.28;2.58;;;;;;;22.24;42.75;101094.50;4954033;29;20031;-77
2023/07/26 14:52:45;;;;;;;3.05;2.40;;;;;;;22.09;43.60;101090.03;4955716;28;20499;-77
2023/07/26 14:55:10;;;;;;;4.88;2.58;;;;;;;22.18;44.07;101087.44;4956350;29;20474;-78
2023/07/26 14:57:36;;;;;;;3.83;2.53;;;;;;;22.29;43.58;101088.09;4954008;29;20478;-79
2023/07/26 15:00:02;;;;;;;7.28;2.45;;;;;;;22.54;42.65;101086.06;4954132;28;20039;-76
2023/07/26 15:02:27;;;;;;;6.70;2.40;;;;;;;22.74;43.03;101084.94;4955205;28;20131;-77
2023/07/26 15:04:53;;;;;;;2.53;2.28;;;;;;;22.85;39.35;101085.59;4954518;29;20031;-76
2023/07/26 15:07:19;;;;;;;3.80;2.05;;;;;;;22.89;39.74;101078.31;4955439;28;20046;-83
2023/07/26 15:09:44;;;;;;;3.50;2.17;;;;;;;22.78;39.82;101074.91;4955239;29;20046;-77
2023/07/26 15:12:09;;;;;;;2.25;2.00;;;;;;;22.87;39.81;101080.56;4950350;29;20035;-76
2023/07/26 15:14:35;;;;;;;2.83;2.33;;;;;;;23.08;39.27;101084.59;4954799;28;20037;-76
2023/07/26 15:17:01;;;;;;;3.92;2.13;;;;;;;23.20;39.37;101078.63;4969163;28;20062;-80
2023/07/26 15:19:26;;;;;;;4.70;2.40;;;;;;;23.17;37.42;101080.06;4951995;28;20035;-77
2023/07/26 15:21:51;;;;;;;2.70;2.20;;;;;;;23.13;38.47;101070.75;4954729;28;20360;-78
2023/07/26 15:24:17;;;;;;;2.42;2.10;;;;;;;23.42;38.53;101069.63;4955686;29;20027;-76
2023/07/26 15:26:42;;;;;;;2.72;2.10;;;;;;;23.73;36.83;101073.72;4953431;28;20090;-79
2023/07/26 15:29:07;;;;;;;4.30;2.28;;;;;;;24.34;36.24;101072.38;4952694;28;20031;-78
2023/07/26 15:31:33;;;;;;;2.38;1.88;;;;;;;24.81;34.36;101074.84;4955328;28;20027;-74
2023/07/26 15:33:58;;;;;;;2.10;1.90;;;;;;;24.95;35.41;101067.25;4953052;28;20102;-75
2023/07/26 15:36:24;;;;;;;5.35;2.10;;;;;;;25.09;34.21;101060.81;4954393;29;20031;-76
2023/07/26 15:38:49;;;;;;;3.00;2.08;;;;;;;25.04;34.12;101066.50;4954739;28;20446;-77
2023/07/26 15:41:15;;;;;;;2.50;2.03;;;;;;;25.26;34.06;101060.91;4954129;28;20037;-75
2023/07/26 15:43:41;;;;;;;2.25;2.00;;;;;;;25.63;33.12;101064.31;4953714;29;20121;-74
2023/07/26 15:46:06;;;;;;;4.25;2.10;;;;;;;25.78;33.64;101065.00;4955429;29;20426;-74
2023/07/26 15:48:31;;;;;;;4.40;2.10;;;;;;;25.44;34.74;101052.69;4953453;29;20439;-74
2023/07/26 15:50:58;;;;;;;2.80;2.13;;;;;;;25.44;33.04;101056.28;4954503;29;20033;-75
2023/07/26 15:53:23;;;;;;;2.53;2.05;;;;;;;25.37;33.67;101057.88;4953197;29;20035;-74
2023/07/26 15:55:49;;;;;;;5.43;1.98;;;;;;;25.64;33.16;101052.09;4968153;28;20125;-73
2023/07/26 15:58:17;;;;;;;2.58;1.80;;;;;;;25.76;33.02;101050.66;4971530;28;20087;-80
